Главная страница
METAR-TAF:

METAR-TAF

Аэропорты :

Мушёэн, Норвегия

широта: 65-48N, долгота: 013-08E, высота над уровнем моря: 70 м

Текущие метеонаблюдения

Эта сводка был подготовлена 23 минут назад, в 11:20 UTC
Ветер 4 Узел переменных направлений
Температура 15°C
Влажность 63%
Давление 1025 hPa
Видимость 10 км и более
небольшая облачность на высоте 2200 фута
Отдельные облака на высоте 2800 фута
Рассеянная облачность на высоте 7000 фута
ливни в окрестностях

METAR: ENMS 091120Z VRB04KT 9999 VCSH FEW022 SCT028 BKN070 15/08 Q1025 RMK WIND 412FT VRB04KT

Время: 13:43 (11:43 UTC)


TAF: отсутствует

Метеонаблюдения и прогнозы для более 4000 аэропортов (сводки METAR и TAF).

Имеющиеся станции представлены на карте желтыми и красными точками.

Чтобы увидеть название станции, наведите на нее мышь.

Затем щелкните, чтобы увидеть метеонаблюдения и метеопрогнозы.

Управление картой: чтобы увеличить масштаб, щелкните зеленые кнопки с черным крестиком; чтобы уменьшить масштаб, щелкните зеленую кнопку с тире; для просмотра соседних карт щелкайте зеленые стрелки.


METAR-TAF: